sensor_id;sensor_type;location;lat;lon;timestamp;temperature;humidity
63966;DHT22;50151;52.030;5.350;2022-11-15T10:45:26;11.80;99.90
63966;DHT22;50151;52.030;5.350;2022-11-15T10:47:53;11.80;99.90
63966;DHT22;50151;52.030;5.350;2022-11-15T10:50:31;11.90;99.90
63966;DHT22;50151;52.030;5.350;2022-11-15T10:53:01;11.90;99.90
63966;DHT22;50151;52.030;5.350;2022-11-15T10:55:31;11.90;99.90
63966;DHT22;50151;52.030;5.350;2022-11-15T10:58:06;12.00;99.90
63966;DHT22;50151;52.030;5.350;2022-11-15T11:00:46;12.10;99.90
63966;DHT22;50151;52.030;5.350;2022-11-15T11:03:28;12.00;99.90
63966;DHT22;50151;52.030;5.350;2022-11-15T11:08:35;12.30;99.90
63966;DHT22;50151;52.030;5.350;2022-11-15T11:11:04;12.40;99.90
63966;DHT22;50151;52.030;5.350;2022-11-15T11:19:02;12.20;99.90
63966;DHT22;50151;52.030;5.350;2022-11-15T11:21:51;12.20;99.90
63966;DHT22;50151;52.030;5.350;2022-11-15T11:25:13;12.40;99.90
63966;DHT22;50151;52.030;5.350;2022-11-15T11:28:01;12.40;99.00
63966;DHT22;50151;52.030;5.350;2022-11-15T11:33:21;12.40;97.10
63966;DHT22;50151;52.030;5.350;2022-11-15T11:36:16;12.30;97.00
63966;DHT22;50151;52.030;5.350;2022-11-15T11:49:38;12.70;96.50
63966;DHT22;50151;52.030;5.350;2022-11-15T11:52:28;12.70;95.90
63966;DHT22;50151;52.030;5.350;2022-11-15T11:55:45;12.80;95.80
63966;DHT22;50151;52.030;5.350;2022-11-15T12:00:27;12.90;94.70
63966;DHT22;50151;52.030;5.350;2022-11-15T12:03:10;12.90;93.80
63966;DHT22;50151;52.030;5.350;2022-11-15T12:05:44;13.00;93.60
63966;DHT22;50151;52.030;5.350;2022-11-15T12:08:31;13.00;93.60
63966;DHT22;50151;52.030;5.350;2022-11-15T12:11:17;13.00;93.40
63966;DHT22;50151;52.030;5.350;2022-11-15T12:13:50;13.10;93.00
63966;DHT22;50151;52.030;5.350;2022-11-15T12:16:26;13.00;93.20
63966;DHT22;50151;52.030;5.350;2022-11-15T12:18:56;12.90;92.90
63966;DHT22;50151;52.030;5.350;2022-11-15T12:21:48;13.00;93.40
63966;DHT22;50151;52.030;5.350;2022-11-15T12:24:21;13.10;93.00
63966;DHT22;50151;52.030;5.350;2022-11-15T12:29:37;13.30;93.10
63966;DHT22;50151;52.030;5.350;2022-11-15T12:32:05;13.40;92.90
63966;DHT22;50151;52.030;5.350;2022-11-15T12:34:44;13.50;92.40
63966;DHT22;50151;52.030;5.350;2022-11-15T12:42:42;13.70;91.20
63966;DHT22;50151;52.030;5.350;2022-11-15T12:45:35;13.90;90.90
63966;DHT22;50151;52.030;5.350;2022-11-15T12:58:45;13.90;91.00
63966;DHT22;50151;52.030;5.350;2022-11-15T13:12:09;13.90;90.90
63966;DHT22;50151;52.030;5.350;2022-11-15T13:14:41;13.80;90.40
63966;DHT22;50151;52.030;5.350;2022-11-15T13:17:25;13.80;90.10
63966;DHT22;50151;52.030;5.350;2022-11-15T13:22:48;13.60;90.40
63966;DHT22;50151;52.030;5.350;2022-11-15T13:30:54;13.40;91.40
63966;DHT22;50151;52.030;5.350;2022-11-15T13:33:22;13.30;91.50
63966;DHT22;50151;52.030;5.350;2022-11-15T13:35:52;13.20;91.60
63966;DHT22;50151;52.030;5.350;2022-11-15T13:40:53;13.20;91.80
63966;DHT22;50151;52.030;5.350;2022-11-15T13:43:29;13.20;92.20
63966;DHT22;50151;52.030;5.350;2022-11-15T13:46:16;13.20;92.40
63966;DHT22;50151;52.030;5.350;2022-11-15T13:48:46;12.90;92.80
63966;DHT22;50151;52.030;5.350;2022-11-15T13:51:49;12.90;92.70
63966;DHT22;50151;52.030;5.350;2022-11-15T13:57:01;12.90;93.00
63966;DHT22;50151;52.030;5.350;2022-11-15T14:02:02;12.70;93.60
63966;DHT22;50151;52.030;5.350;2022-11-15T14:04:30;12.60;93.40
63966;DHT22;50151;52.030;5.350;2022-11-15T14:07:01;12.70;93.60
63966;DHT22;50151;52.030;5.350;2022-11-15T14:09:37;12.70;93.70
63966;DHT22;50151;52.030;5.350;2022-11-15T14:12:27;12.50;93.50
63966;DHT22;50151;52.030;5.350;2022-11-15T14:14:56;12.50;94.00
63966;DHT22;50151;52.030;5.350;2022-11-15T14:19:56;12.50;93.50
63966;DHT22;50151;52.030;5.350;2022-11-15T14:22:25;12.50;93.90
63966;DHT22;50151;52.030;5.350;2022-11-15T14:27:43;12.50;93.70
63966;DHT22;50151;52.030;5.350;2022-11-15T14:30:16;12.40;93.50
63966;DHT22;50151;52.030;5.350;2022-11-15T14:32:48;12.40;93.60
63966;DHT22;50151;52.030;5.350;2022-11-15T14:35:21;12.40;93.50
63966;DHT22;50151;52.030;5.350;2022-11-15T14:37:48;12.40;93.50
63966;DHT22;50151;52.030;5.350;2022-11-15T14:40:18;12.40;93.40
63966;DHT22;50151;52.030;5.350;2022-11-15T14:42:46;12.40;93.50
63966;DHT22;50151;52.030;5.350;2022-11-15T14:45:16;12.30;93.40
63966;DHT22;50151;52.030;5.350;2022-11-15T14:47:43;12.30;93.30
63966;DHT22;50151;52.030;5.350;2022-11-15T14:50:18;12.30;93.50
63966;DHT22;50151;52.030;5.350;2022-11-15T14:52:45;12.30;93.50
63966;DHT22;50151;52.030;5.350;2022-11-15T14:55:25;12.20;93.20
63966;DHT22;50151;52.030;5.350;2022-11-15T14:57:52;12.30;93.30
63966;DHT22;50151;52.030;5.350;2022-11-15T15:00:22;12.20;93.30
63966;DHT22;50151;52.030;5.350;2022-11-15T15:02:52;12.20;93.30
63966;DHT22;50151;52.030;5.350;2022-11-15T15:05:25;12.20;93.20
63966;DHT22;50151;52.030;5.350;2022-11-15T15:07:52;12.20;93.30
63966;DHT22;50151;52.030;5.350;2022-11-15T15:10:19;12.20;93.50
63966;DHT22;50151;52.030;5.350;2022-11-15T15:13:14;12.10;93.10
63966;DHT22;50151;52.030;5.350;2022-11-15T15:15:41;12.10;93.10
63966;DHT22;50151;52.030;5.350;2022-11-15T15:18:07;12.10;92.70
63966;DHT22;50151;52.030;5.350;2022-11-15T15:20:35;12.10;92.60
63966;DHT22;50151;52.030;5.350;2022-11-15T15:23:03;12.10;92.50
63966;DHT22;50151;52.030;5.350;2022-11-15T15:25:32;12.10;92.50
63966;DHT22;50151;52.030;5.350;2022-11-15T15:27:59;12.10;92.50
63966;DHT22;50151;52.030;5.350;2022-11-15T15:30:28;12.10;92.10
63966;DHT22;50151;52.030;5.350;2022-11-15T15:32:55;12.10;92.40
63966;DHT22;50151;52.030;5.350;2022-11-15T15:35:22;12.10;92.50
63966;DHT22;50151;52.030;5.350;2022-11-15T15:37:49;12.00;92.40
63966;DHT22;50151;52.030;5.350;2022-11-15T15:40:20;12.10;92.50
63966;DHT22;50151;52.030;5.350;2022-11-15T15:42:48;12.10;91.90
63966;DHT22;50151;52.030;5.350;2022-11-15T15:45:17;12.00;92.10
63966;DHT22;50151;52.030;5.350;2022-11-15T15:47:45;12.10;92.00
63966;DHT22;50151;52.030;5.350;2022-11-15T15:50:24;12.00;92.00
63966;DHT22;50151;52.030;5.350;2022-11-15T15:52:52;12.10;91.40
63966;DHT22;50151;52.030;5.350;2022-11-15T15:55:19;12.10;91.40
63966;DHT22;50151;52.030;5.350;2022-11-15T15:57:46;12.00;91.20
63966;DHT22;50151;52.030;5.350;2022-11-15T16:00:14;12.00;91.40
63966;DHT22;50151;52.030;5.350;2022-11-15T16:02:41;12.00;91.60
63966;DHT22;50151;52.030;5.350;2022-11-15T16:05:09;12.00;91.30
63966;DHT22;50151;52.030;5.350;2022-11-15T16:07:36;12.00;91.40
63966;DHT22;50151;52.030;5.350;2022-11-15T16:12:46;12.00;91.40
63966;DHT22;50151;52.030;5.350;2022-11-15T16:15:13;11.90;91.40
63966;DHT22;50151;52.030;5.350;2022-11-15T16:17:47;12.00;91.30
63966;DHT22;50151;52.030;5.350;2022-11-15T16:22:56;12.00;91.40
63966;DHT22;50151;52.030;5.350;2022-11-15T16:25:23;12.00;91.70
63966;DHT22;50151;52.030;5.350;2022-11-15T16:27:50;12.00;91.30
63966;DHT22;50151;52.030;5.350;2022-11-15T16:30:20;12.00;91.50
63966;DHT22;50151;52.030;5.350;2022-11-15T16:32:47;11.90;91.40
63966;DHT22;50151;52.030;5.350;2022-11-15T16:35:15;12.00;91.60
63966;DHT22;50151;52.030;5.350;2022-11-15T16:37:43;11.90;91.60
63966;DHT22;50151;52.030;5.350;2022-11-15T16:40:29;11.90;91.90
63966;DHT22;50151;52.030;5.350;2022-11-15T16:42:57;11.90;92.20
63966;DHT22;50151;52.030;5.350;2022-11-15T16:45:26;12.00;92.20
63966;DHT22;50151;52.030;5.350;2022-11-15T16:47:55;11.90;92.60
63966;DHT22;50151;52.030;5.350;2022-11-15T16:50:27;11.90;92.80
63966;DHT22;50151;52.030;5.350;2022-11-15T16:52:55;11.90;93.10
63966;DHT22;50151;52.030;5.350;2022-11-15T16:55:25;11.90;93.20
63966;DHT22;50151;52.030;5.350;2022-11-15T16:57:54;11.90;93.60
63966;DHT22;50151;52.030;5.350;2022-11-15T17:00:21;11.90;93.90
63966;DHT22;50151;52.030;5.350;2022-11-15T17:02:49;11.90;94.00
63966;DHT22;50151;52.030;5.350;2022-11-15T17:05:22;12.00;94.30
63966;DHT22;50151;52.030;5.350;2022-11-15T17:07:50;11.90;94.50
63966;DHT22;50151;52.030;5.350;2022-11-15T17:10:21;11.90;95.30
63966;DHT22;50151;52.030;5.350;2022-11-15T17:12:48;11.90;96.00
63966;DHT22;50151;52.030;5.350;2022-11-15T17:15:15;11.80;96.70
63966;DHT22;50151;52.030;5.350;2022-11-15T17:17:43;11.80;97.30
63966;DHT22;50151;52.030;5.350;2022-11-15T17:20:15;11.70;98.00
63966;DHT22;50151;52.030;5.350;2022-11-15T17:22:41;11.60;99.30
63966;DHT22;50151;52.030;5.350;2022-11-15T17:25:08;11.60;99.70
63966;DHT22;50151;52.030;5.350;2022-11-15T17:27:35;11.50;99.90
63966;DHT22;50151;52.030;5.350;2022-11-15T17:30:03;11.50;99.90
63966;DHT22;50151;52.030;5.350;2022-11-15T17:32:30;11.50;99.90
63966;DHT22;50151;52.030;5.350;2022-11-15T17:34:56;11.50;99.90
63966;DHT22;50151;52.030;5.350;2022-11-15T17:37:23;11.40;99.90
63966;DHT22;50151;52.030;5.350;2022-11-15T17:39:49;11.40;99.90
63966;DHT22;50151;52.030;5.350;2022-11-15T17:42:16;11.40;99.90
63966;DHT22;50151;52.030;5.350;2022-11-15T17:44:43;11.40;99.90
63966;DHT22;50151;52.030;5.350;2022-11-15T17:47:09;11.40;99.90
63966;DHT22;50151;52.030;5.350;2022-11-15T17:49:36;11.40;99.90
63966;DHT22;50151;52.030;5.350;2022-11-15T17:52:06;11.30;99.90
63966;DHT22;50151;52.030;5.350;2022-11-15T17:54:33;11.20;99.90
63966;DHT22;50151;52.030;5.350;2022-11-15T17:56:59;11.20;99.90
63966;DHT22;50151;52.030;5.350;2022-11-15T17:59:26;11.20;99.90
63966;DHT22;50151;52.030;5.350;2022-11-15T18:01:53;11.20;99.90
63966;DHT22;50151;52.030;5.350;2022-11-15T18:04:19;11.20;99.90
63966;DHT22;50151;52.030;5.350;2022-11-15T18:06:46;11.20;99.90
63966;DHT22;50151;52.030;5.350;2022-11-15T18:09:13;11.20;99.90
63966;DHT22;50151;52.030;5.350;2022-11-15T18:11:41;11.20;99.90
63966;DHT22;50151;52.030;5.350;2022-11-15T18:14:13;11.10;99.90
63966;DHT22;50151;52.030;5.350;2022-11-15T18:16:40;11.10;99.90
63966;DHT22;50151;52.030;5.350;2022-11-15T18:19:08;11.10;99.90
63966;DHT22;50151;52.030;5.350;2022-11-15T18:21:43;11.10;99.90
63966;DHT22;50151;52.030;5.350;2022-11-15T18:24:32;11.10;99.90
63966;DHT22;50151;52.030;5.350;2022-11-15T18:27:01;11.10;99.90
63966;DHT22;50151;52.030;5.350;2022-11-15T18:29:28;11.10;99.90
63966;DHT22;50151;52.030;5.350;2022-11-15T18:31:55;11.10;99.90
63966;DHT22;50151;52.030;5.350;2022-11-15T18:34:24;11.00;99.90
63966;DHT22;50151;52.030;5.350;2022-11-15T18:36:51;11.10;99.90
63966;DHT22;50151;52.030;5.350;2022-11-15T18:39:18;11.10;99.90
63966;DHT22;50151;52.030;5.350;2022-11-15T18:41:45;11.10;99.90
63966;DHT22;50151;52.030;5.350;2022-11-15T18:44:14;11.10;99.90
63966;DHT22;50151;52.030;5.350;2022-11-15T18:46:42;11.10;99.90
63966;DHT22;50151;52.030;5.350;2022-11-15T18:49:12;11.10;99.90
63966;DHT22;50151;52.030;5.350;2022-11-15T18:51:39;11.10;99.90
63966;DHT22;50151;52.030;5.350;2022-11-15T18:54:10;11.10;99.90
63966;DHT22;50151;52.030;5.350;2022-11-15T18:56:37;11.10;99.90
63966;DHT22;50151;52.030;5.350;2022-11-15T18:59:04;11.10;99.90
63966;DHT22;50151;52.030;5.350;2022-11-15T19:01:33;11.10;99.90
63966;DHT22;50151;52.030;5.350;2022-11-15T19:04:09;11.10;99.90
63966;DHT22;50151;52.030;5.350;2022-11-15T19:06:38;11.10;99.90
63966;DHT22;50151;52.030;5.350;2022-11-15T19:09:06;11.10;99.90
63966;DHT22;50151;52.030;5.350;2022-11-15T19:11:36;11.10;99.90
63966;DHT22;50151;52.030;5.350;2022-11-15T19:14:07;11.10;99.90
63966;DHT22;50151;52.030;5.350;2022-11-15T19:16:40;11.10;99.90
63966;DHT22;50151;52.030;5.350;2022-11-15T19:19:13;11.10;99.90
63966;DHT22;50151;52.030;5.350;2022-11-15T19:21:40;11.10;99.90
63966;DHT22;50151;52.030;5.350;2022-11-15T19:24:07;11.10;99.90
63966;DHT22;50151;52.030;5.350;2022-11-15T19:26:36;11.10;99.90
63966;DHT22;50151;52.030;5.350;2022-11-15T19:29:04;11.20;99.90
63966;DHT22;50151;52.030;5.350;2022-11-15T19:31:31;11.10;99.90
63966;DHT22;50151;52.030;5.350;2022-11-15T19:34:00;11.20;99.90
63966;DHT22;50151;52.030;5.350;2022-11-15T19:36:31;11.20;99.90
63966;DHT22;50151;52.030;5.350;2022-11-15T19:39:00;11.20;99.90
63966;DHT22;50151;52.030;5.350;2022-11-15T19:41:30;11.20;99.90
63966;DHT22;50151;52.030;5.350;2022-11-15T19:43:57;11.20;99.90
63966;DHT22;50151;52.030;5.350;2022-11-15T19:46:24;11.20;99.90
63966;DHT22;50151;52.030;5.350;2022-11-15T19:48:52;11.20;99.90
63966;DHT22;50151;52.030;5.350;2022-11-15T19:51:23;11.20;99.90
63966;DHT22;50151;52.030;5.350;2022-11-15T19:53:56;11.20;99.90
63966;DHT22;50151;52.030;5.350;2022-11-15T19:56:23;11.20;99.90
63966;DHT22;50151;52.030;5.350;2022-11-15T19:58:52;11.20;99.90
63966;DHT22;50151;52.030;5.350;2022-11-15T20:01:24;11.20;99.90
63966;DHT22;50151;52.030;5.350;2022-11-15T20:03:53;11.20;99.90
63966;DHT22;50151;52.030;5.350;2022-11-15T20:06:28;11.20;99.90
63966;DHT22;50151;52.030;5.350;2022-11-15T20:08:56;11.20;99.90
63966;DHT22;50151;52.030;5.350;2022-11-15T20:11:23;11.20;99.90
63966;DHT22;50151;52.030;5.350;2022-11-15T20:13:54;11.20;99.90
63966;DHT22;50151;52.030;5.350;2022-11-15T20:16:21;11.20;99.90
63966;DHT22;50151;52.030;5.350;2022-11-15T20:18:49;11.20;99.90
63966;DHT22;50151;52.030;5.350;2022-11-15T20:21:16;11.20;99.90
63966;DHT22;50151;52.030;5.350;2022-11-15T20:23:43;11.20;99.90
63966;DHT22;50151;52.030;5.350;2022-11-15T20:26:10;11.20;99.90
63966;DHT22;50151;52.030;5.350;2022-11-15T20:28:38;11.20;99.90
63966;DHT22;50151;52.030;5.350;2022-11-15T20:31:06;11.30;99.90
63966;DHT22;50151;52.030;5.350;2022-11-15T20:33:33;11.30;99.90
63966;DHT22;50151;52.030;5.350;2022-11-15T20:36:08;11.30;99.90
63966;DHT22;50151;52.030;5.350;2022-11-15T20:38:36;11.30;99.90
63966;DHT22;50151;52.030;5.350;2022-11-15T20:41:03;11.20;99.90
63966;DHT22;50151;52.030;5.350;2022-11-15T20:43:29;11.20;99.90
63966;DHT22;50151;52.030;5.350;2022-11-15T20:45:56;11.30;99.90
63966;DHT22;50151;52.030;5.350;2022-11-15T20:48:23;11.30;99.90
63966;DHT22;50151;52.030;5.350;2022-11-15T20:50:49;11.30;99.90
63966;DHT22;50151;52.030;5.350;2022-11-15T20:53:17;11.30;99.90
63966;DHT22;50151;52.030;5.350;2022-11-15T20:55:47;11.30;99.90
63966;DHT22;50151;52.030;5.350;2022-11-15T20:58:15;11.30;99.90
63966;DHT22;50151;52.030;5.350;2022-11-15T21:00:43;11.30;99.90
63966;DHT22;50151;52.030;5.350;2022-11-15T21:03:11;11.30;99.90
63966;DHT22;50151;52.030;5.350;2022-11-15T21:05:42;11.30;99.90
63966;DHT22;50151;52.030;5.350;2022-11-15T21:08:10;11.30;99.90
63966;DHT22;50151;52.030;5.350;2022-11-15T21:10:39;11.40;99.90
63966;DHT22;50151;52.030;5.350;2022-11-15T21:13:25;11.30;99.90
63966;DHT22;50151;52.030;5.350;2022-11-15T21:15:55;11.40;99.90
63966;DHT22;50151;52.030;5.350;2022-11-15T21:18:23;11.40;99.90
63966;DHT22;50151;52.030;5.350;2022-11-15T21:20:50;11.40;99.90
63966;DHT22;50151;52.030;5.350;2022-11-15T21:23:17;11.40;99.90
